Airfield :







YOU CAN JOIN US ON...

 
LOGIN :

Register | Disclaimer

   EN    FR    IT 

 









Legend :    VFR   Marginal VFR   IFR   Intensive IFR   Very Intensive IFR
Visi :
Ceiling :
>= 8 km
>= 3000ft
5 to 8 km
1000 to 3000 ft
1500m to 5 km
500 to 1000 ft
800 to 1500m
200 to 500 ft
< 800m
< 200 ft
Symbols :   Thunderstorms  Fog  Heavy snow  Heavy precipitations  Wind > 20 kt






- Airport Elevation : 129 ft
- IATA code : YVP


CYVP - Kuujjuak

CURRENT METAR :
  • 150800Z 25006KT 15SM BKN090 10/07 A2994 RMK AC6 SLP142

EXPIRED METARs :
  • 150700Z 26007KT 15SM BKN087 10/07 A2993 RMK AC6 SLP139
  • 150600Z 25006KT 15SM BKN070 10/07 A2993 RMK AC7 SLP139

TAF TAF CYVP
Valid from the 15 at 06:00 until the 15 at 18:00 UTC


150540Z 1506/1518 24006KT P6SM SCT090
FM150800 26008KT P6SM BKN040
BECMG 1510/1512 29012KT RMK NXT FCST BY 151200Z
CZUL FIR / North America



MET'MAP, your aeronautical weather chart ! - Copyright ORBIFLY December 2007 - Disclaimer

ORBIFLY MET'MAP TEAM :

Programming & Development : Alexandra Zaïnal
Original concept : Baudouin d'Aumeries
Technical & hardware support : Manuel Goepfert
Assistance : Marc-Olivier Méhu




SOURCES & CREDITS :

   NOAA